Time;durP1;ratioP1;P1;durP2;ratioP2;P2;SDS_P1;SDS_P2;PMS_P1;PMS_P2;Temp;Humidity;BMP_temperature;BMP_pressure;BME280_temperature;BME280_humidity;BME280_pressure;Samples;Min_cycle;Max_cycle;Signal;HPM_P1;HPM_P2
2022/07/16 00:02:56;;;;;;;2.95;0.90;;;17.50;69.80;;;;;;5001584;28;20045;-85
2022/07/16 00:05:21;;;;;;;4.30;1.20;;;17.60;70.10;;;;;;4982903;28;20383;-84
2022/07/16 00:07:47;;;;;;;3.47;0.80;;;17.60;70.10;;;;;;4996824;28;20494;-85
2022/07/16 00:10:13;;;;;;;3.42;1.13;;;17.60;70.30;;;;;;4981948;28;20512;-85
2022/07/16 00:12:38;;;;;;;4.57;1.00;;;17.50;70.30;;;;;;4980028;28;20522;-84
2022/07/16 00:15:05;;;;;;;2.60;0.80;;;17.60;70.70;;;;;;4979712;28;20034;-85
2022/07/16 00:17:31;;;;;;;6.10;1.05;;;17.50;70.70;;;;;;4995676;28;20061;-85
2022/07/16 00:19:57;;;;;;;2.35;0.70;;;17.60;70.80;;;;;;4995568;28;20164;-85
2022/07/16 00:22:23;;;;;;;3.10;0.98;;;17.60;70.90;;;;;;4979708;28;20018;-84
2022/07/16 00:24:48;;;;;;;3.33;0.90;;;17.60;71.30;;;;;;4979408;28;20033;-84
2022/07/16 00:27:14;;;;;;;3.50;1.20;;;17.50;71.10;;;;;;4979825;28;20122;-85
2022/07/16 00:29:40;;;;;;;2.50;0.98;;;17.50;71.30;;;;;;4996061;28;20382;-84
2022/07/16 00:32:05;;;;;;;2.20;0.90;;;17.60;71.30;;;;;;4979369;28;20030;-84
2022/07/16 00:34:31;;;;;;;2.63;1.00;;;17.50;71.30;;;;;;4995412;28;20054;-84
2022/07/16 00:36:57;;;;;;;2.80;0.75;;;17.60;71.50;;;;;;4995477;28;20077;-85
2022/07/16 00:39:22;;;;;;;2.58;0.90;;;17.60;71.70;;;;;;4979451;28;20117;-85
2022/07/16 00:41:49;;;;;;;4.75;1.17;;;17.50;71.70;;;;;;4979147;28;20049;-85
2022/07/16 00:44:18;;;;;;;3.78;1.08;;;17.60;71.90;;;;;;4995279;28;20052;-85
2022/07/16 00:46:46;;;;;;;3.28;1.02;;;17.50;72.00;;;;;;4995071;28;20038;-85
2022/07/16 00:49:12;;;;;;;2.58;1.00;;;17.60;72.60;;;;;;4995255;28;20100;-85
2022/07/16 00:51:45;;;;;;;2.45;1.08;;;17.60;72.60;;;;;;4995211;28;20045;-84
2022/07/16 00:54:12;;;;;;;3.05;1.13;;;17.60;72.60;;;;;;4995167;28;20037;-80
2022/07/16 00:56:38;;;;;;;3.17;1.20;;;17.60;72.80;;;;;;4994977;28;20037;-84
2022/07/16 00:59:04;;;;;;;4.13;1.67;;;17.60;72.90;;;;;;4978584;28;20467;-84
2022/07/16 01:01:30;;;;;;;3.08;1.17;;;17.50;72.80;;;;;;4977995;28;20031;-85
2022/07/16 01:03:56;;;;;;;4.88;1.58;;;17.60;73.10;;;;;;4978195;28;20026;-85
2022/07/16 01:06:25;;;;;;;3.72;1.30;;;17.50;73.30;;;;;;4978866;28;20104;-85
2022/07/16 01:08:52;;;;;;;3.25;1.25;;;17.60;73.50;;;;;;4995490;28;20157;-84
2022/07/16 01:11:20;;;;;;;4.18;1.77;;;17.50;73.50;;;;;;4994859;28;20022;-85
2022/07/16 01:13:48;;;;;;;3.15;1.42;;;17.60;73.70;;;;;;4996345;28;20375;-85
2022/07/16 01:16:15;;;;;;;2.92;1.17;;;17.50;73.70;;;;;;4994614;28;20025;-85
2022/07/16 01:18:42;;;;;;;4.60;1.35;;;17.50;73.80;;;;;;4994598;28;20403;-85
2022/07/16 01:21:08;;;;;;;4.22;1.40;;;17.50;74.00;;;;;;4978374;28;20434;-85
2022/07/16 01:23:35;;;;;;;3.90;1.27;;;17.50;74.20;;;;;;4994631;28;20022;-85
2022/07/16 01:26:01;;;;;;;4.13;1.25;;;17.50;74.30;;;;;;4995811;28;20026;-85
2022/07/16 01:28:27;;;;;;;3.60;1.27;;;17.50;74.40;;;;;;4978844;28;20121;-83
2022/07/16 01:30:53;;;;;;;5.65;1.60;;;17.50;75.40;;;;;;4996065;28;20058;-83
2022/07/16 01:33:21;;;;;;;4.72;1.55;;;17.50;75.50;;;;;;4978242;28;20482;-83
2022/07/16 01:35:47;;;;;;;4.22;1.80;;;17.50;74.80;;;;;;4994378;28;20033;-83
2022/07/16 01:38:13;;;;;;;3.20;1.30;;;17.50;75.00;;;;;;4994263;28;20084;-83
2022/07/16 01:40:39;;;;;;;4.78;1.45;;;17.50;75.10;;;;;;4994224;28;20022;-83
2022/07/16 01:43:21;;;;;;;2.58;1.40;;;17.50;75.30;;;;;;4978003;28;20184;-83
2022/07/16 01:45:47;;;;;;;3.17;1.33;;;17.50;75.30;;;;;;4994101;28;20030;-84
2022/07/16 01:48:14;;;;;;;3.42;1.20;;;17.50;75.50;;;;;;4994059;28;20018;-83
2022/07/16 01:50:42;;;;;;;4.90;1.42;;;17.50;75.60;;;;;;4994093;28;20161;-83
2022/07/16 01:53:09;;;;;;;5.50;1.42;;;17.50;75.70;;;;;;4994048;28;20030;-83
2022/07/16 01:55:35;;;;;;;4.30;1.42;;;17.50;75.80;;;;;;4993883;28;20083;-83
2022/07/16 01:58:02;;;;;;;3.08;1.20;;;17.50;75.90;;;;;;4994183;28;20080;-84
2022/07/16 02:00:28;;;;;;;4.18;1.17;;;17.50;76.10;;;;;;4977624;28;20057;-83
2022/07/16 02:02:54;;;;;;;5.10;1.30;;;17.50;76.30;;;;;;4993791;28;20446;-83
2022/07/16 02:05:20;;;;;;;3.00;1.20;;;17.50;76.30;;;;;;4977610;28;20109;-83
2022/07/16 02:07:45;;;;;;;3.03;1.35;;;17.50;76.30;;;;;;4993998;28;20390;-83
2022/07/16 02:10:11;;;;;;;5.28;1.42;;;17.50;76.50;;;;;;4993810;28;20052;-83
2022/07/16 02:12:37;;;;;;;5.38;1.52;;;17.50;76.60;;;;;;4977413;28;20034;-83
2022/07/16 02:15:05;;;;;;;4.07;1.90;;;17.50;76.70;;;;;;4977533;28;20542;-83
2022/07/16 02:17:30;;;;;;;10.82;1.63;;;17.50;76.70;;;;;;4977602;28;20023;-83
2022/07/16 02:19:56;;;;;;;4.82;1.63;;;17.50;76.90;;;;;;4977007;28;20054;-83
2022/07/16 02:22:22;;;;;;;5.45;1.73;;;17.50;77.00;;;;;;4994769;28;20022;-84
2022/07/16 02:24:47;;;;;;;3.97;1.55;;;17.50;77.20;;;;;;4993463;28;20533;-83
2022/07/16 02:27:13;;;;;;;4.65;1.58;;;17.50;77.20;;;;;;4977124;28;20034;-83
2022/07/16 02:29:39;;;;;;;7.03;1.67;;;17.40;77.30;;;;;;4977195;28;20108;-83
2022/07/16 02:32:04;;;;;;;6.45;1.80;;;17.50;77.60;;;;;;4994607;28;20045;-83
2022/07/16 02:34:30;;;;;;;4.20;1.58;;;17.50;77.40;;;;;;4977141;28;20458;-83
2022/07/16 02:36:56;;;;;;;4.40;1.67;;;17.50;77.60;;;;;;4993236;28;20057;-84
2022/07/16 02:39:21;;;;;;;3.95;1.42;;;17.50;77.70;;;;;;4993175;28;20026;-85
2022/07/16 02:41:47;;;;;;;6.05;1.83;;;17.50;77.90;;;;;;4976921;28;20027;-82
2022/07/16 02:44:13;;;;;;;4.40;1.38;;;17.50;78.10;;;;;;4993026;28;20023;-83
2022/07/16 02:46:38;;;;;;;4.07;1.50;;;17.50;78.10;;;;;;4977015;28;20038;-85
2022/07/16 02:49:04;;;;;;;6.07;1.77;;;17.50;78.10;;;;;;4976704;28;20474;-82
2022/07/16 02:51:30;;;;;;;4.43;1.50;;;17.50;78.20;;;;;;4993015;28;20061;-83
2022/07/16 02:53:55;;;;;;;5.93;1.63;;;17.40;78.40;;;;;;4994536;28;20038;-83
2022/07/16 02:56:21;;;;;;;5.60;2.00;;;17.40;78.60;;;;;;4992839;28;20458;-83
2022/07/16 02:58:47;;;;;;;4.47;1.50;;;17.40;78.70;;;;;;4977242;28;20080;-82
2022/07/16 03:01:12;;;;;;;5.22;1.55;;;17.40;78.80;;;;;;4976631;28;20030;-84
2022/07/16 03:03:38;;;;;;;5.65;1.75;;;17.30;78.70;;;;;;4976749;28;20105;-83
2022/07/16 03:06:04;;;;;;;3.75;1.65;;;17.30;78.80;;;;;;4976748;28;20030;-83
2022/07/16 03:08:29;;;;;;;4.50;1.63;;;17.30;79.20;;;;;;4976728;28;20030;-83
2022/07/16 03:10:55;;;;;;;4.43;1.75;;;17.20;79.30;;;;;;4992964;28;20483;-83
2022/07/16 03:13:21;;;;;;;6.05;1.70;;;17.20;79.50;;;;;;4976574;28;20113;-83
2022/07/16 03:15:46;;;;;;;6.07;1.92;;;17.20;79.40;;;;;;4976314;28;20029;-82
2022/07/16 03:18:12;;;;;;;3.53;1.58;;;17.20;79.80;;;;;;4993831;28;20034;-83
2022/07/16 03:20:38;;;;;;;5.90;2.10;;;17.10;79.80;;;;;;4992898;28;20042;-83
2022/07/16 03:23:03;;;;;;;4.72;1.77;;;17.10;80.10;;;;;;4976617;28;20030;-83
2022/07/16 03:25:29;;;;;;;4.72;1.75;;;17.10;80.10;;;;;;4993981;28;20121;-83
2022/07/16 03:27:55;;;;;;;4.40;2.15;;;17.10;80.90;;;;;;4980551;28;20041;-83
2022/07/16 03:30:21;;;;;;;8.00;1.95;;;17.00;81.20;;;;;;4996565;28;20393;-83
2022/07/16 03:32:47;;;;;;;5.72;2.20;;;17.00;81.60;;;;;;4996890;28;20058;-85
2022/07/16 03:35:13;;;;;;;5.90;2.33;;;17.00;82.00;;;;;;4997971;28;20026;-83
2022/07/16 03:40:26;;;;;;;4.28;1.80;;;17.00;82.20;;;;;;4997992;28;20037;-85
2022/07/16 03:42:51;;;;;;;5.65;2.60;;;17.00;82.30;;;;;;4997348;28;20026;-83
2022/07/16 03:45:17;;;;;;;4.90;2.20;;;16.90;82.50;;;;;;4996568;28;20049;-84
2022/07/16 03:47:43;;;;;;;5.43;2.38;;;17.00;82.90;;;;;;4997501;28;20030;-83
2022/07/16 03:50:09;;;;;;;3.80;2.00;;;17.00;83.30;;;;;;4997588;28;20033;-83
2022/07/16 03:52:35;;;;;;;6.07;2.35;;;16.90;83.20;;;;;;4980293;28;20433;-84
2022/07/16 03:55:00;;;;;;;5.85;2.80;;;16.90;83.70;;;;;;4980036;28;20027;-83
2022/07/16 03:57:26;;;;;;;5.18;2.78;;;16.90;83.70;;;;;;4996103;28;20023;-83
2022/07/16 03:59:51;;;;;;;6.38;2.75;;;16.90;83.90;;;;;;4996121;28;20379;-83
2022/07/16 04:02:17;;;;;;;6.05;2.58;;;16.90;84.70;;;;;;4979908;28;20034;-83
2022/07/16 04:04:43;;;;;;;5.93;2.10;;;17.00;84.20;;;;;;4979797;28;20026;-83
2022/07/16 04:07:09;;;;;;;6.35;2.90;;;17.00;84.40;;;;;;4979846;28;20029;-83
2022/07/16 04:09:34;;;;;;;4.63;2.60;;;17.00;85.50;;;;;;4979703;28;20081;-83
2022/07/16 04:12:00;;;;;;;5.75;2.85;;;17.00;85.90;;;;;;4979671;28;20031;-82
2022/07/16 04:14:25;;;;;;;6.93;2.92;;;17.00;86.00;;;;;;4995826;28;20030;-82
2022/07/16 04:16:51;;;;;;;4.60;2.40;;;17.00;86.40;;;;;;4989812;28;20085;-81
2022/07/16 04:19:17;;;;;;;4.55;2.40;;;17.00;86.50;;;;;;4968698;28;20043;-82
2022/07/16 04:21:43;;;;;;;7.40;2.78;;;17.00;86.50;;;;;;4992640;28;20027;-81
2022/07/16 04:24:08;;;;;;;7.03;2.95;;;17.00;87.00;;;;;;4976068;28;20027;-82
2022/07/16 04:26:34;;;;;;;6.03;2.67;;;17.10;87.30;;;;;;4977756;28;20116;-82
2022/07/16 04:29:00;;;;;;;5.78;1.92;;;17.00;88.10;;;;;;4979679;28;20033;-81
2022/07/16 04:31:25;;;;;;;8.02;2.20;;;17.10;88.30;;;;;;4975973;28;20050;-82
2022/07/16 04:33:51;;;;;;;5.90;2.22;;;17.00;88.50;;;;;;4975700;28;20121;-83
2022/07/16 04:36:16;;;;;;;6.53;2.22;;;17.10;88.90;;;;;;5009107;28;20031;-83
2022/07/16 04:38:42;;;;;;;6.35;2.42;;;17.00;89.50;;;;;;4978943;28;20062;-77
2022/07/16 04:41:08;;;;;;;6.68;1.85;;;17.00;89.80;;;;;;4962882;28;20482;-77
2022/07/16 04:43:33;;;;;;;6.28;2.25;;;17.00;89.70;;;;;;4978978;28;20053;-79
2022/07/16 04:45:59;;;;;;;6.05;2.25;;;17.00;90.00;;;;;;4978877;28;20026;-77
2022/07/16 04:48:25;;;;;;;6.07;2.15;;;17.00;90.00;;;;;;4962982;28;20479;-78
2022/07/16 04:50:50;;;;;;;5.35;2.00;;;17.00;90.10;;;;;;4995119;28;20041;-78
2022/07/16 04:53:16;;;;;;;6.45;1.67;;;17.00;90.10;;;;;;4995127;28;20049;-77
2022/07/16 04:55:42;;;;;;;4.72;2.00;;;17.00;90.10;;;;;;4996138;28;20038;-77
2022/07/16 04:58:08;;;;;;;4.55;1.70;;;17.00;90.40;;;;;;4962717;28;20038;-77
2022/07/16 05:00:33;;;;;;;5.75;1.90;;;16.90;90.50;;;;;;4994955;28;20394;-78
2022/07/16 05:02:59;;;;;;;4.80;1.50;;;16.90;90.80;;;;;;4978644;28;20022;-77
2022/07/16 05:05:32;;;;;;;3.90;1.70;;;16.90;90.90;;;;;;4962494;28;20026;-76
2022/07/16 05:07:59;;;;;;;4.50;1.77;;;16.90;90.80;;;;;;4994823;28;20137;-78
2022/07/16 05:10:25;;;;;;;2.78;1.38;;;16.90;90.80;;;;;;4994823;28;20034;-78
2022/07/16 05:12:52;;;;;;;3.55;1.50;;;17.00;91.00;;;;;;4994729;28;20487;-77
2022/07/16 05:15:18;;;;;;;10.02;2.92;;;17.00;91.00;;;;;;4978480;28;20026;-78
2022/07/16 05:17:44;;;;;;;3.10;1.30;;;17.10;91.10;;;;;;4995885;28;20113;-79
2022/07/16 05:20:10;;;;;;;4.90;1.38;;;17.10;91.00;;;;;;4978337;28;20093;-79
2022/07/16 05:22:36;;;;;;;6.32;1.20;;;17.10;91.50;;;;;;4978381;28;20038;-78
2022/07/16 05:25:02;;;;;;;4.40;1.20;;;17.10;91.20;;;;;;4978197;28;20117;-78
2022/07/16 05:27:28;;;;;;;4.75;1.20;;;17.10;91.20;;;;;;4994330;28;20037;-77
2022/07/16 05:29:54;;;;;;;1.90;0.95;;;17.10;91.20;;;;;;4994688;28;20034;-79
2022/07/16 05:32:20;;;;;;;4.72;1.00;;;17.10;91.30;;;;;;4978288;28;20037;-77
2022/07/16 05:34:45;;;;;;;5.93;0.82;;;17.20;91.60;;;;;;4962094;28;20445;-79
2022/07/16 05:37:11;;;;;;;3.17;0.80;;;17.20;91.40;;;;;;4961923;28;20043;-78
2022/07/16 05:39:36;;;;;;;2.55;0.80;;;17.20;91.40;;;;;;4994587;28;20458;-78
2022/07/16 05:42:02;;;;;;;4.30;1.17;;;17.20;91.40;;;;;;4961832;28;20471;-79
2022/07/16 05:44:28;;;;;;;3.65;1.08;;;17.30;91.50;;;;;;4989668;28;20034;-78
2022/07/16 05:46:53;;;;;;;6.63;0.93;;;17.30;91.50;;;;;;4996429;28;20030;-78
2022/07/16 05:49:19;;;;;;;5.38;1.40;;;17.40;91.50;;;;;;4994792;28;20031;-78
2022/07/16 05:51:45;;;;;;;3.70;0.88;;;17.40;91.40;;;;;;4942509;28;20050;-77
2022/07/16 05:54:10;;;;;;;4.70;1.08;;;17.40;91.40;;;;;;4958353;28;20034;-80
2022/07/16 05:56:36;;;;;;;4.78;0.70;;;17.40;91.40;;;;;;4972059;28;20035;-76
2022/07/16 05:59:02;;;;;;;6.85;1.00;;;17.50;91.20;;;;;;4981060;28;20026;-80
2022/07/16 06:01:29;;;;;;;3.25;0.50;;;17.50;91.10;;;;;;4942241;28;20419;-78
2022/07/16 06:03:55;;;;;;;1.73;0.60;;;17.50;90.60;;;;;;4974244;28;20566;-78
2022/07/16 06:06:21;;;;;;;1.85;0.47;;;17.50;90.40;;;;;;4974090;28;20025;-78
2022/07/16 06:08:46;;;;;;;3.72;0.70;;;17.50;90.30;;;;;;4974198;28;20031;-79
2022/07/16 06:11:12;;;;;;;2.13;0.50;;;17.60;90.20;;;;;;4974310;28;20026;-78
2022/07/16 06:13:38;;;;;;;4.07;0.80;;;17.60;90.00;;;;;;4970748;28;20394;-79
2022/07/16 06:16:07;;;;;;;6.13;0.60;;;17.60;89.50;;;;;;5007105;28;20445;-79
2022/07/16 06:18:33;;;;;;;2.33;0.60;;;17.70;89.10;;;;;;4969956;28;20047;-79
2022/07/16 06:20:58;;;;;;;3.90;0.70;;;17.70;88.50;;;;;;4961250;28;20073;-85
2022/07/16 06:23:24;;;;;;;2.97;0.80;;;17.70;87.80;;;;;;4962109;28;20063;-82
2022/07/16 06:25:50;;;;;;;3.85;0.80;;;17.70;87.60;;;;;;5013045;28;20389;-83
2022/07/16 06:28:15;;;;;;;3.35;0.50;;;17.80;87.10;;;;;;4964898;28;20038;-83
2022/07/16 06:30:41;;;;;;;2.33;0.50;;;17.80;86.90;;;;;;4959674;28;20031;-82
2022/07/16 06:33:07;;;;;;;4.97;0.70;;;17.90;86.40;;;;;;4975779;28;20467;-82
2022/07/16 06:35:32;;;;;;;3.05;0.65;;;17.90;85.20;;;;;;5014946;28;20058;-82
2022/07/16 06:37:58;;;;;;;3.97;0.80;;;17.90;85.20;;;;;;4957522;28;20038;-82
2022/07/16 06:40:24;;;;;;;4.07;0.70;;;18.00;85.30;;;;;;4941701;28;20027;-83
2022/07/16 06:42:49;;;;;;;2.45;0.47;;;18.10;85.60;;;;;;5002470;28;20058;-83
2022/07/16 06:45:15;;;;;;;3.55;0.70;;;18.10;85.30;;;;;;4996281;28;20034;-83
2022/07/16 06:47:41;;;;;;;2.55;0.77;;;18.20;85.30;;;;;;4996226;28;20026;-81
2022/07/16 06:50:07;;;;;;;3.83;0.50;;;18.30;85.00;;;;;;5012298;28;20025;-82
2022/07/16 06:52:32;;;;;;;3.30;0.43;;;18.30;84.10;;;;;;4996427;28;20120;-84
2022/07/16 06:54:58;;;;;;;2.92;0.50;;;18.40;83.20;;;;;;5011406;28;20034;-83
2022/07/16 06:57:24;;;;;;;3.90;0.68;;;18.40;83.00;;;;;;4978307;28;20391;-83
2022/07/16 06:59:49;;;;;;;2.75;0.50;;;18.60;82.80;;;;;;4964038;28;20066;-82
2022/07/16 07:02:15;;;;;;;3.40;0.68;;;18.60;82.80;;;;;;4960420;28;20077;-84
2022/07/16 07:04:41;;;;;;;6.63;0.55;;;18.80;82.70;;;;;;4957586;28;20035;-84
2022/07/16 07:07:07;;;;;;;2.85;0.57;;;18.90;82.20;;;;;;4973745;28;20097;-84
2022/07/16 07:09:32;;;;;;;3.55;0.50;;;19.00;81.20;;;;;;4957441;28;20066;-84
2022/07/16 07:11:58;;;;;;;4.60;0.88;;;19.10;81.00;;;;;;4953945;28;20508;-84
2022/07/16 07:14:24;;;;;;;2.88;0.70;;;19.10;80.40;;;;;;4957716;28;20047;-82
2022/07/16 07:16:50;;;;;;;3.65;0.60;;;19.10;80.30;;;;;;4973655;28;20110;-82
2022/07/16 07:19:15;;;;;;;3.75;0.60;;;19.00;79.50;;;;;;4941424;28;20051;-83
2022/07/16 07:21:41;;;;;;;3.40;0.60;;;19.00;79.20;;;;;;4973320;28;20027;-83
2022/07/16 07:24:06;;;;;;;2.92;0.43;;;18.90;79.10;;;;;;4941249;28;20033;-81
2022/07/16 07:26:33;;;;;;;2.78;0.47;;;18.90;79.00;;;;;;4957633;28;20093;-82
2022/07/16 07:28:59;;;;;;;2.42;0.50;;;18.90;78.40;;;;;;4957200;28;20023;-82
2022/07/16 07:31:24;;;;;;;2.25;0.40;;;18.90;76.80;;;;;;4957150;28;20081;-83
2022/07/16 07:33:50;;;;;;;3.47;0.50;;;18.90;76.50;;;;;;4973167;28;20022;-82
2022/07/16 07:36:16;;;;;;;4.13;0.60;;;18.90;75.20;;;;;;4957224;28;20468;-83
2022/07/16 07:38:41;;;;;;;4.30;0.70;;;18.90;74.20;;;;;;4957023;28;20077;-82
2022/07/16 07:41:07;;;;;;;3.85;0.40;;;18.90;73.80;;;;;;4957773;28;20031;-84
2022/07/16 07:43:33;;;;;;;2.03;0.32;;;19.00;73.50;;;;;;4995694;28;20470;-84
2022/07/16 07:45:58;;;;;;;3.25;0.50;;;19.00;73.30;;;;;;5012259;28;20092;-83
2022/07/16 07:48:24;;;;;;;1.98;0.40;;;19.00;71.40;;;;;;5028653;28;20030;-83
2022/07/16 07:50:49;;;;;;;2.55;0.40;;;19.00;70.00;;;;;;4992673;28;20026;-79
2022/07/16 07:53:15;;;;;;;2.72;0.50;;;19.00;70.30;;;;;;4960215;28;20096;-80
2022/07/16 07:55:41;;;;;;;2.35;0.45;;;19.00;69.00;;;;;;4992122;28;20022;-80
2022/07/16 07:58:08;;;;;;;2.13;0.40;;;19.00;68.90;;;;;;5003038;28;20425;-79
2022/07/16 08:00:33;;;;;;;5.40;0.50;;;19.00;68.50;;;;;;5007542;28;20104;-80
2022/07/16 08:02:59;;;;;;;2.15;0.55;;;18.90;68.70;;;;;;4980187;28;20054;-79
2022/07/16 08:05:25;;;;;;;1.95;0.45;;;18.90;68.70;;;;;;4976494;28;20054;-78
2022/07/16 08:07:51;;;;;;;2.67;0.40;;;18.90;68.40;;;;;;4976070;28;20026;-78
2022/07/16 08:10:17;;;;;;;3.65;0.60;;;18.90;68.70;;;;;;4991979;28;20026;-77
2022/07/16 08:12:43;;;;;;;2.05;0.40;;;18.90;68.10;;;;;;4994878;28;20489;-80
2022/07/16 08:15:10;;;;;;;3.38;0.40;;;19.00;68.20;;;;;;4979383;28;20030;-79
2022/07/16 08:17:36;;;;;;;1.92;0.40;;;19.00;68.30;;;;;;4979699;28;20025;-79
2022/07/16 08:20:03;;;;;;;2.65;0.80;;;19.10;68.70;;;;;;4995486;28;20125;-80
2022/07/16 08:22:28;;;;;;;1.35;0.30;;;19.20;68.60;;;;;;5012003;28;20030;-79
2022/07/16 08:27:38;;;;;;;;;;;19.40;67.70;;;;;;4997602;28;20060;-78
2022/07/16 08:30:04;;;;;;;4.30;0.43;;;19.50;67.00;;;;;;4979332;28;20422;-80
2022/07/16 08:32:30;;;;;;;2.92;0.50;;;19.70;66.80;;;;;;4963517;28;20026;-79
2022/07/16 08:34:55;;;;;;;1.75;0.40;;;19.80;66.50;;;;;;4979466;28;20048;-80
2022/07/16 08:37:32;;;;;;;2.63;0.50;;;19.80;66.30;;;;;;4995593;28;20034;-82
2022/07/16 08:39:58;;;;;;;4.88;0.60;;;19.90;65.60;;;;;;4995896;28;20030;-82
2022/07/16 08:42:25;;;;;;;3.53;0.70;;;19.90;65.60;;;;;;4995255;28;20019;-80
2022/07/16 08:44:52;;;;;;;2.38;0.52;;;19.90;65.70;;;;;;4995374;28;20026;-78
2022/07/16 08:47:18;;;;;;;3.50;0.50;;;19.80;65.90;;;;;;4981971;28;20102;-86
2022/07/16 08:49:44;;;;;;;2.90;0.55;;;19.70;66.40;;;;;;4984161;28;20106;-82
2022/07/16 08:52:11;;;;;;;5.28;1.13;;;19.70;66.50;;;;;;5000068;28;20037;-81
2022/07/16 08:54:38;;;;;;;2.35;0.50;;;19.70;66.60;;;;;;4998922;28;20037;-82
2022/07/16 08:57:05;;;;;;;2.40;0.40;;;19.70;65.10;;;;;;4998537;28;20030;-81
2022/07/16 08:59:30;;;;;;;3.55;0.70;;;19.60;64.50;;;;;;4998925;28;20458;-80
2022/07/16 09:01:56;;;;;;;1.30;0.40;;;19.60;65.10;;;;;;5014469;28;20037;-80
2022/07/16 09:04:22;;;;;;;6.30;0.60;;;19.60;64.90;;;;;;5015838;28;20578;-81
2022/07/16 09:06:49;;;;;;;2.17;0.30;;;19.60;65.60;;;;;;4979588;28;20026;-80
2022/07/16 09:09:14;;;;;;;1.88;0.40;;;19.50;64.00;;;;;;4996162;28;20026;-81
2022/07/16 09:11:40;;;;;;;4.40;0.63;;;19.50;63.40;;;;;;5015780;28;20496;-79
2022/07/16 09:14:16;;;;;;;3.25;0.40;;;19.50;63.70;;;;;;5014835;28;20018;-80
2022/07/16 09:16:50;;;;;;;3.40;0.43;;;19.50;63.70;;;;;;5015858;28;20026;-80
2022/07/16 09:19:16;;;;;;;4.10;0.60;;;19.50;63.60;;;;;;5014472;28;20041;-80
2022/07/16 09:22:06;;;;;;;3.45;0.60;;;19.60;63.40;;;;;;5030875;28;20022;-80
2022/07/16 09:24:47;;;;;;;2.63;0.65;;;19.90;63.00;;;;;;5029730;28;20026;-80
2022/07/16 09:27:20;;;;;;;3.47;0.60;;;20.10;63.00;;;;;;5014247;28;20018;-81
2022/07/16 09:29:59;;;;;;;4.82;0.60;;;20.30;62.40;;;;;;5015903;28;20026;-80
2022/07/16 09:32:36;;;;;;;2.90;0.38;;;20.40;61.50;;;;;;5014149;28;20022;-80
2022/07/16 09:35:13;;;;;;;1.88;0.40;;;20.50;61.00;;;;;;5015217;28;20030;-80
2022/07/16 09:37:55;;;;;;;0.77;0.20;;;20.50;60.60;;;;;;5014016;28;20029;-80
2022/07/16 09:40:50;;;;;;;3.72;0.40;;;20.70;60.60;;;;;;5016421;28;20033;-80
2022/07/16 09:43:18;;;;;;;2.28;0.38;;;20.80;59.70;;;;;;5001761;28;20030;-80
2022/07/16 09:45:46;;;;;;;2.35;0.30;;;20.90;59.20;;;;;;4998580;28;20023;-80
2022/07/16 09:48:25;;;;;;;1.58;0.40;;;21.00;59.50;;;;;;4982025;28;20382;-81
2022/07/16 09:50:53;;;;;;;1.95;0.50;;;21.00;58.00;;;;;;4995575;28;20026;-79
2022/07/16 09:53:22;;;;;;;2.20;0.30;;;21.00;58.10;;;;;;5001479;28;20493;-80
2022/07/16 09:55:56;;;;;;;10.18;0.50;;;21.00;58.10;;;;;;4994174;28;20022;-80
2022/07/16 09:58:21;;;;;;;;;;;21.00;58.10;;;;;;4978545;28;20022;-79
2022/07/16 10:00:47;;;;;;;1.23;0.20;;;21.00;58.20;;;;;;5010986;28;19912;-81
2022/07/16 10:03:14;;;;;;;3.50;0.30;;;21.00;58.50;;;;;;4994042;28;20030;-79
2022/07/16 10:05:40;;;;;;;1.77;0.40;;;21.10;58.40;;;;;;4995519;28;20018;-78
2022/07/16 10:08:06;;;;;;;1.75;0.20;;;21.10;58.20;;;;;;4993887;28;20037;-80
2022/07/16 10:10:32;;;;;;;0.70;0.20;;;21.20;58.00;;;;;;4979420;28;20486;-79
2022/07/16 10:12:58;;;;;;;1.02;0.30;;;21.20;57.90;;;;;;5008761;28;20053;-79
2022/07/16 10:15:23;;;;;;;2.95;0.30;;;21.20;57.50;;;;;;4982121;28;20035;-79
2022/07/16 10:17:49;;;;;;;2.20;0.30;;;21.20;57.00;;;;;;4995032;28;20025;-78
2022/07/16 10:20:19;;;;;;;4.03;0.43;;;21.30;56.90;;;;;;4986096;28;20423;-80
2022/07/16 10:22:46;;;;;;;1.38;0.20;;;21.30;57.10;;;;;;4976676;28;20065;-79
2022/07/16 10:25:16;;;;;;;4.07;0.40;;;21.40;57.30;;;;;;4993663;28;20046;-80
2022/07/16 10:27:42;;;;;;;3.33;0.40;;;21.40;57.00;;;;;;4993148;28;20029;-80
2022/07/16 10:30:26;;;;;;;4.22;0.20;;;21.50;56.80;;;;;;4977255;28;20030;-77
2022/07/16 10:33:05;;;;;;;1.58;0.30;;;21.60;56.50;;;;;;4993246;28;20026;-79
2022/07/16 10:35:38;;;;;;;1.13;0.25;;;21.70;56.60;;;;;;4992832;28;20038;-78
2022/07/16 10:38:23;;;;;;;1.38;0.20;;;21.80;56.50;;;;;;4992938;28;20054;-77
2022/07/16 10:41:06;;;;;;;2.20;0.32;;;21.90;56.10;;;;;;4993309;28;20014;-78
2022/07/16 10:43:32;;;;;;;1.63;0.22;;;22.00;55.70;;;;;;4995017;28;20030;-79
2022/07/16 10:46:06;;;;;;;3.03;0.30;;;22.10;55.90;;;;;;4976974;28;20035;-79
2022/07/16 10:48:38;;;;;;;2.85;0.32;;;22.20;56.10;;;;;;4992914;28;20038;-77
2022/07/16 10:51:15;;;;;;;4.00;0.60;;;22.30;55.80;;;;;;4993244;28;20034;-79
2022/07/16 10:54:01;;;;;;;1.90;0.28;;;22.30;55.40;;;;;;4993384;28;20026;-79
2022/07/16 10:56:38;;;;;;;3.25;0.40;;;22.40;55.30;;;;;;4985904;28;20034;-79
2022/07/16 10:59:07;;;;;;;1.80;0.30;;;22.60;55.30;;;;;;4992878;28;20363;-79
2022/07/16 11:01:39;;;;;;;0.70;0.20;;;22.80;55.00;;;;;;4992916;28;20025;-78
2022/07/16 11:04:05;;;;;;;2.00;0.25;;;22.90;54.40;;;;;;4992861;28;20022;-78
2022/07/16 11:06:32;;;;;;;3.55;0.38;;;23.10;54.20;;;;;;4978627;28;20029;-79
2022/07/16 11:09:04;;;;;;;1.83;0.30;;;23.20;54.60;;;;;;4993359;28;20613;-80
2022/07/16 11:11:33;;;;;;;0.80;0.30;;;23.40;53.90;;;;;;4992698;28;20471;-80
2022/07/16 11:14:00;;;;;;;2.65;0.30;;;23.50;53.60;;;;;;4992525;28;20034;-80
2022/07/16 11:16:26;;;;;;;3.15;0.30;;;23.60;53.40;;;;;;4992551;28;20026;-79
2022/07/16 11:18:52;;;;;;;3.03;0.30;;;23.70;53.20;;;;;;4992552;28;20049;-79
2022/07/16 11:21:17;;;;;;;2.85;0.30;;;23.80;53.00;;;;;;4993971;28;20034;-80
2022/07/16 11:24:01;;;;;;;2.83;0.40;;;24.00;52.80;;;;;;4976525;28;20395;-80
2022/07/16 11:26:28;;;;;;;2.67;0.50;;;24.20;52.00;;;;;;4993329;28;20609;-78
2022/07/16 11:28:55;;;;;;;1.67;0.30;;;24.40;51.90;;;;;;4993963;28;20594;-79
2022/07/16 11:31:29;;;;;;;1.10;0.20;;;24.40;51.60;;;;;;4994045;28;20034;-80
2022/07/16 11:33:58;;;;;;;1.98;0.40;;;24.60;51.50;;;;;;4993061;28;20030;-80
2022/07/16 11:36:34;;;;;;;2.47;0.30;;;24.70;51.10;;;;;;4993807;28;20455;-79
2022/07/16 11:39:07;;;;;;;1.65;0.25;;;24.90;50.70;;;;;;4992309;28;20043;-79
2022/07/16 11:41:38;;;;;;;1.75;0.32;;;25.10;50.20;;;;;;4992483;28;20076;-80
2022/07/16 11:44:30;;;;;;;1.45;0.20;;;25.40;50.00;;;;;;4992641;28;20026;-81
2022/07/16 11:46:58;;;;;;;2.67;0.35;;;25.70;48.80;;;;;;4994439;28;20601;-80
2022/07/16 11:49:29;;;;;;;2.22;0.20;;;25.90;48.80;;;;;;4995997;28;20077;-78
2022/07/16 11:52:03;;;;;;;1.75;0.25;;;26.20;48.40;;;;;;4996259;28;20058;-80
2022/07/16 11:54:34;;;;;;;1.30;0.28;;;26.40;48.00;;;;;;4996352;28;20049;-78
2022/07/16 11:57:00;;;;;;;2.63;0.30;;;26.60;47.50;;;;;;4980331;28;20026;-80
2022/07/16 11:59:28;;;;;;;2.25;0.20;;;26.90;47.20;;;;;;4979561;28;20026;-81
2022/07/16 12:02:06;;;;;;;1.25;0.20;;;27.10;46.90;;;;;;4995847;28;20022;-81
2022/07/16 12:04:37;;;;;;;1.75;0.20;;;27.40;46.30;;;;;;4995663;28;20022;-80
2022/07/16 12:07:05;;;;;;;2.33;0.20;;;27.60;46.30;;;;;;4997509;28;20037;-81
2022/07/16 12:09:37;;;;;;;1.05;0.25;;;27.70;45.80;;;;;;4997076;28;20049;-81
2022/07/16 12:12:05;;;;;;;2.10;0.30;;;27.80;45.30;;;;;;4995768;28;20077;-79
2022/07/16 12:14:46;;;;;;;3.20;0.30;;;28.00;45.10;;;;;;4995982;28;20022;-81
2022/07/16 12:17:22;;;;;;;2.83;0.35;;;28.20;44.30;;;;;;4996301;28;20030;-81
2022/07/16 12:20:14;;;;;;;2.72;0.30;;;28.40;44.20;;;;;;4995633;28;20046;-80
2022/07/16 12:23:00;;;;;;;2.22;0.28;;;28.60;44.00;;;;;;4995530;28;20026;-81
2022/07/16 12:25:35;;;;;;;3.42;0.38;;;28.50;44.00;;;;;;4996392;28;20054;-79
2022/07/16 12:28:22;;;;;;;4.20;0.57;;;28.40;44.00;;;;;;4995212;28;20023;-78
2022/07/16 12:31:11;;;;;;;2.35;0.30;;;28.40;44.10;;;;;;4995347;28;20022;-81
2022/07/16 12:33:38;;;;;;;4.93;0.43;;;28.50;44.00;;;;;;4995520;28;20034;-78
2022/07/16 12:36:06;;;;;;;1.65;0.30;;;28.50;43.70;;;;;;4995302;28;20041;-82
2022/07/16 12:38:54;;;;;;;4.28;0.30;;;28.60;43.30;;;;;;4979136;28;20117;-81
2022/07/16 12:41:32;;;;;;;3.70;0.47;;;28.70;43.20;;;;;;4995528;28;20022;-82
2022/07/16 12:44:02;;;;;;;1.10;0.30;;;28.80;43.20;;;;;;4995780;28;20042;-80
2022/07/16 12:46:33;;;;;;;2.03;0.30;;;29.00;43.00;;;;;;4995270;28;20014;-82
2022/07/16 12:49:03;;;;;;;2.28;0.50;;;29.20;42.70;;;;;;4995025;28;20389;-81
2022/07/16 12:51:31;;;;;;;2.30;0.30;;;29.40;42.50;;;;;;4995323;28;20030;-81
2022/07/16 12:53:58;;;;;;;3.03;0.40;;;29.70;42.30;;;;;;4995476;28;20053;-80
2022/07/16 12:59:09;;;;;;;1.08;0.20;;;30.10;41.50;;;;;;4996392;28;20505;-79
2022/07/16 13:01:36;;;;;;;2.25;0.22;;;30.40;41.90;;;;;;4994972;28;20018;-80